Time;durP1;ratioP1;P1;durP2;ratioP2;P2;SDS_P1;SDS_P2;PMS_P1;PMS_P2;Temp;Humidity;BMP_temperature;BMP_pressure;BME280_temperature;BME280_humidity;BME280_pressure;Samples;Min_cycle;Max_cycle;Signal;HPM_P1;HPM_P2
2023/08/04 00:01:16;;;;;;;11.65;3.42;;;;;;;;;;5156931;27;20033;-90
2023/08/04 00:04:00;;;;;;;17.77;4.90;;;;;;;;;;5141022;27;20118;-91
2023/08/04 00:06:44;;;;;;;12.95;4.50;;;;;;;;;;5156361;27;20523;-89
2023/08/04 00:09:29;;;;;;;14.40;3.33;;;;;;;;;;5141204;27;20042;-91
2023/08/04 00:12:14;;;;;;;12.13;3.03;;;;;;;;;;5156744;27;20041;-91
2023/08/04 00:14:58;;;;;;;16.50;5.00;;;;;;;;;;5156248;27;20042;-91
2023/08/04 00:17:43;;;;;;;7.95;3.03;;;;;;;;;;5140769;27;20498;-86
2023/08/04 00:20:27;;;;;;;9.75;3.00;;;;;;;;;;5156060;27;20034;-90
2023/08/04 00:23:12;;;;;;;10.65;3.15;;;;;;;;;;5156593;27;20090;-91
2023/08/04 00:25:56;;;;;;;13.20;3.20;;;;;;;;;;5156130;27;20034;-90
2023/08/04 00:28:41;;;;;;;8.48;2.88;;;;;;;;;;5140436;27;20075;-90
2023/08/04 00:31:25;;;;;;;9.85;3.55;;;;;;;;;;5156407;27;20037;-90
2023/08/04 00:34:10;;;;;;;9.88;2.70;;;;;;;;;;5140542;27;20057;-90
2023/08/04 00:36:55;;;;;;;8.98;3.17;;;;;;;;;;5155745;27;20114;-90
2023/08/04 00:39:39;;;;;;;9.70;2.67;;;;;;;;;;5140767;27;20038;-92
2023/08/04 00:42:24;;;;;;;11.43;2.90;;;;;;;;;;5140442;27;20410;-92
2023/08/04 00:45:08;;;;;;;9.63;2.38;;;;;;;;;;5140134;27;20046;-91
2023/08/04 00:47:53;;;;;;;9.00;3.10;;;;;;;;;;5155813;27;20083;-91
2023/08/04 00:50:39;;;;;;;9.35;2.85;;;;;;;;;;5156056;27;20033;-91
2023/08/04 00:53:23;;;;;;;7.32;2.40;;;;;;;;;;5140497;27;20098;-91
2023/08/04 00:56:08;;;;;;;9.82;3.00;;;;;;;;;;5139901;27;20038;-92
2023/08/04 00:58:53;;;;;;;7.35;2.67;;;;;;;;;;5139716;27;20147;-93
2023/08/04 01:01:38;;;;;;;8.32;2.85;;;;;;;;;;5155781;27;20050;-89
2023/08/04 01:04:22;;;;;;;6.72;2.78;;;;;;;;;;5140145;27;20119;-92
2023/08/04 01:07:23;;;;;;;7.50;3.10;;;;;;;;;;5139763;27;20076;-91
2023/08/04 01:10:20;;;;;;;12.55;4.63;;;;;;;;;;5155394;27;20110;-90
2023/08/04 01:13:05;;;;;;;11.18;2.80;;;;;;;;;;5139653;27;20059;-93
2023/08/04 01:15:51;;;;;;;11.02;2.95;;;;;;;;;;5155398;27;20038;-86
2023/08/04 01:18:36;;;;;;;3.72;2.35;;;;;;;;;;5155556;27;20042;-93
2023/08/04 01:21:21;;;;;;;11.63;3.08;;;;;;;;;;5155287;27;20038;-92
2023/08/04 01:24:05;;;;;;;9.85;2.83;;;;;;;;;;5155017;27;20045;-91
2023/08/04 01:26:50;;;;;;;5.47;2.20;;;;;;;;;;5155299;27;20079;-91
2023/08/04 01:29:34;;;;;;;7.03;2.40;;;;;;;;;;5155295;27;20038;-88
2023/08/04 01:32:19;;;;;;;8.98;2.30;;;;;;;;;;5154317;27;20046;-89
2023/08/04 01:35:07;;;;;;;7.40;2.20;;;;;;;;;;5138815;27;20070;-92
2023/08/04 01:37:51;;;;;;;5.07;1.90;;;;;;;;;;5139572;27;20172;-92
2023/08/04 01:40:36;;;;;;;4.47;1.90;;;;;;;;;;5155006;27;20166;-91
2023/08/04 01:43:21;;;;;;;10.00;2.20;;;;;;;;;;5139377;27;20456;-91
2023/08/04 01:46:06;;;;;;;4.93;1.92;;;;;;;;;;5154570;27;20077;-91
2023/08/04 01:48:50;;;;;;;6.35;1.63;;;;;;;;;;5154963;27;20402;-92
2023/08/04 01:51:35;;;;;;;4.55;1.95;;;;;;;;;;5154867;27;20046;-93
2023/08/04 01:54:19;;;;;;;5.72;1.55;;;;;;;;;;5154578;27;20052;-91
2023/08/04 01:57:04;;;;;;;4.70;1.90;;;;;;;;;;5154428;27;20041;-91
2023/08/04 01:59:49;;;;;;;6.00;1.70;;;;;;;;;;5139108;27;20091;-91
2023/08/04 02:02:33;;;;;;;5.85;1.80;;;;;;;;;;5154562;27;20081;-91
2023/08/04 02:05:18;;;;;;;6.78;1.90;;;;;;;;;;5154159;27;20126;-91
2023/08/04 02:08:02;;;;;;;8.93;2.35;;;;;;;;;;5154200;27;20056;-91
2023/08/04 02:10:50;;;;;;;7.60;2.13;;;;;;;;;;5154492;27;20041;-91
2023/08/04 02:13:35;;;;;;;4.32;1.98;;;;;;;;;;5154354;27;20505;-91
2023/08/04 02:16:20;;;;;;;5.03;1.85;;;;;;;;;;5138632;27;20098;-92
2023/08/04 02:19:11;;;;;;;7.47;2.42;;;;;;;;;;5138366;27;20075;-92
2023/08/04 02:21:55;;;;;;;8.20;2.17;;;;;;;;;;5154345;27;20045;-91
2023/08/04 02:24:40;;;;;;;5.95;1.60;;;;;;;;;;5154260;27;20077;-91
2023/08/04 02:27:24;;;;;;;8.40;2.22;;;;;;;;;;5138726;27;20063;-92
2023/08/04 02:30:09;;;;;;;5.90;2.28;;;;;;;;;;5153852;27;20087;-91
2023/08/04 02:32:54;;;;;;;5.68;1.80;;;;;;;;;;5154230;27;20037;-91
2023/08/04 02:35:38;;;;;;;5.32;2.08;;;;;;;;;;5153795;27;20057;-90
2023/08/04 02:38:23;;;;;;;10.55;2.80;;;;;;;;;;5153887;27;20122;-89
2023/08/04 02:41:09;;;;;;;4.80;2.08;;;;;;;;;;5153765;27;20037;-90
2023/08/04 02:43:53;;;;;;;10.43;2.67;;;;;;;;;;5153893;27;20046;-90
2023/08/04 02:46:37;;;;;;;5.93;2.30;;;;;;;;;;5154033;27;20037;-91
2023/08/04 02:49:22;;;;;;;7.38;2.30;;;;;;;;;;5153663;27;20038;-93
2023/08/04 02:52:08;;;;;;;7.60;2.13;;;;;;;;;;5153611;27;20172;-92
2023/08/04 02:54:55;;;;;;;5.97;1.85;;;;;;;;;;5138395;27;20046;-90
2023/08/04 02:57:40;;;;;;;8.60;1.98;;;;;;;;;;5138409;27;20037;-92
2023/08/04 03:00:26;;;;;;;4.45;2.00;;;;;;;;;;5137986;27;20531;-91
2023/08/04 03:03:10;;;;;;;6.53;2.22;;;;;;;;;;5153431;27;20042;-91
2023/08/04 03:05:59;;;;;;;7.22;2.00;;;;;;;;;;5153945;27;20509;-90
2023/08/04 03:08:43;;;;;;;3.92;1.90;;;;;;;;;;5153939;27;20547;-90
2023/08/04 03:11:28;;;;;;;6.95;1.95;;;;;;;;;;5137995;27;20079;-91
2023/08/04 03:14:12;;;;;;;4.00;2.00;;;;;;;;;;5153486;27;20458;-91
2023/08/04 03:16:57;;;;;;;4.45;2.30;;;;;;;;;;5138212;27;20132;-92
2023/08/04 03:19:42;;;;;;;5.15;1.98;;;;;;;;;;5153923;27;20079;-91
